sensor_id;sensor_type;location;lat;lon;timestamp;pressure;altitude;pressure_sealevel;temperature;humidity
19150;BME280;9707;49.158;8.632;2023-08-31T00:01:08;99807.66;;;25.96;41.48
19150;BME280;9707;49.158;8.632;2023-08-31T00:03:34;99816.66;;;25.97;41.63
19150;BME280;9707;49.158;8.632;2023-08-31T00:06:01;99809.50;;;25.96;41.52
19150;BME280;9707;49.158;8.632;2023-08-31T00:08:27;99809.69;;;25.94;41.54
19150;BME280;9707;49.158;8.632;2023-08-31T00:10:59;99804.38;;;25.93;41.61
19150;BME280;9707;49.158;8.632;2023-08-31T00:13:25;99797.22;;;25.92;41.77
19150;BME280;9707;49.158;8.632;2023-08-31T00:15:54;99796.41;;;25.91;41.85
19150;BME280;9707;49.158;8.632;2023-08-31T00:18:20;99799.25;;;25.90;41.70
19150;BME280;9707;49.158;8.632;2023-08-31T00:20:46;99800.28;;;25.89;41.69
19150;BME280;9707;49.158;8.632;2023-08-31T00:23:11;99807.59;;;25.88;41.86
19150;BME280;9707;49.158;8.632;2023-08-31T00:25:36;99806.94;;;25.86;41.87
19150;BME280;9707;49.158;8.632;2023-08-31T00:28:02;99809.81;;;25.85;42.03
19150;BME280;9707;49.158;8.632;2023-08-31T00:30:30;99814.25;;;25.86;42.01
19150;BME280;9707;49.158;8.632;2023-08-31T00:32:57;99818.00;;;25.85;41.94
19150;BME280;9707;49.158;8.632;2023-08-31T00:35:25;99821.75;;;25.84;41.82
19150;BME280;9707;49.158;8.632;2023-08-31T00:37:51;99814.56;;;25.83;41.71
19150;BME280;9707;49.158;8.632;2023-08-31T00:40:16;99813.75;;;25.82;41.93
19150;BME280;9707;49.158;8.632;2023-08-31T00:42:41;99821.06;;;25.82;42.09
19150;BME280;9707;49.158;8.632;2023-08-31T00:45:07;99817.50;;;25.81;41.86
19150;BME280;9707;49.158;8.632;2023-08-31T00:47:33;99823.78;;;25.82;41.81
19150;BME280;9707;49.158;8.632;2023-08-31T00:49:59;99821.06;;;25.82;41.97
19150;BME280;9707;49.158;8.632;2023-08-31T00:52:24;99815.78;;;25.80;41.86
19150;BME280;9707;49.158;8.632;2023-08-31T00:54:52;99818.69;;;25.79;41.94
19150;BME280;9707;49.158;8.632;2023-08-31T00:57:17;99819.53;;;25.79;41.83
19150;BME280;9707;49.158;8.632;2023-08-31T00:59:43;99816.13;;;25.77;41.95
19150;BME280;9707;49.158;8.632;2023-08-31T01:02:21;99820.72;;;25.77;42.20
19150;BME280;9707;49.158;8.632;2023-08-31T01:05:13;99822.78;;;25.75;41.77
19150;BME280;9707;49.158;8.632;2023-08-31T01:07:48;99823.81;;;25.74;42.13
19150;BME280;9707;49.158;8.632;2023-08-31T01:10:40;99830.25;;;25.73;42.06
19150;BME280;9707;49.158;8.632;2023-08-31T01:13:11;99825.81;;;25.72;42.23
19150;BME280;9707;49.158;8.632;2023-08-31T01:15:39;99833.19;;;25.71;42.26
19150;BME280;9707;49.158;8.632;2023-08-31T01:18:07;99832.31;;;25.71;42.29
19150;BME280;9707;49.158;8.632;2023-08-31T01:20:38;99830.63;;;25.70;42.15
19150;BME280;9707;49.158;8.632;2023-08-31T01:23:10;99830.63;;;25.70;42.23
19150;BME280;9707;49.158;8.632;2023-08-31T01:25:36;99829.75;;;25.69;41.87
19150;BME280;9707;49.158;8.632;2023-08-31T01:28:02;99820.88;;;25.67;42.17
19150;BME280;9707;49.158;8.632;2023-08-31T01:30:31;99830.94;;;25.67;42.02
19150;BME280;9707;49.158;8.632;2023-08-31T01:32:57;99839.97;;;25.67;42.31
19150;BME280;9707;49.158;8.632;2023-08-31T01:35:22;99841.84;;;25.67;42.47
19150;BME280;9707;49.158;8.632;2023-08-31T01:37:52;99851.94;;;25.66;42.31
19150;BME280;9707;49.158;8.632;2023-08-31T01:40:23;99843.91;;;25.65;41.97
19150;BME280;9707;49.158;8.632;2023-08-31T01:42:50;99849.34;;;25.65;42.15
19150;BME280;9707;49.158;8.632;2023-08-31T01:45:19;99850.38;;;25.64;41.99
19150;BME280;9707;49.158;8.632;2023-08-31T01:47:46;99851.38;;;25.63;41.75
19150;BME280;9707;49.158;8.632;2023-08-31T01:50:12;99856.84;;;25.63;41.90
19150;BME280;9707;49.158;8.632;2023-08-31T01:52:37;99851.38;;;25.63;42.06
19150;BME280;9707;49.158;8.632;2023-08-31T01:55:03;99856.00;;;25.62;42.09
19150;BME280;9707;49.158;8.632;2023-08-31T01:57:31;99853.44;;;25.61;42.18
19150;BME280;9707;49.158;8.632;2023-08-31T01:59:58;99853.44;;;25.61;42.20
19150;BME280;9707;49.158;8.632;2023-08-31T02:02:23;99862.66;;;25.60;42.13
19150;BME280;9707;49.158;8.632;2023-08-31T02:04:48;99862.81;;;25.58;42.05
19150;BME280;9707;49.158;8.632;2023-08-31T02:07:15;99864.69;;;25.58;42.05
19150;BME280;9707;49.158;8.632;2023-08-31T02:09:41;99857.50;;;25.57;42.14
19150;BME280;9707;49.158;8.632;2023-08-31T02:12:09;99868.41;;;25.57;41.93
19150;BME280;9707;49.158;8.632;2023-08-31T02:14:37;99854.97;;;25.55;41.95
19150;BME280;9707;49.158;8.632;2023-08-31T02:17:03;99865.03;;;25.55;42.09
19150;BME280;9707;49.158;8.632;2023-08-31T02:19:28;99870.47;;;25.55;42.04
19150;BME280;9707;49.158;8.632;2023-08-31T02:21:54;99873.19;;;25.55;42.26
19150;BME280;9707;49.158;8.632;2023-08-31T02:24:19;99870.47;;;25.55;42.15
19150;BME280;9707;49.158;8.632;2023-08-31T02:26:45;99882.41;;;25.54;42.03
19150;BME280;9707;49.158;8.632;2023-08-31T02:29:10;99871.66;;;25.52;41.49
19150;BME280;9707;49.158;8.632;2023-08-31T02:31:35;99870.78;;;25.52;41.94
19150;BME280;9707;49.158;8.632;2023-08-31T02:34:02;99875.41;;;25.51;41.88
19150;BME280;9707;49.158;8.632;2023-08-31T02:36:27;99875.56;;;25.50;41.71
19150;BME280;9707;49.158;8.632;2023-08-31T02:38:53;99876.59;;;25.49;41.92
19150;BME280;9707;49.158;8.632;2023-08-31T02:41:18;99877.63;;;25.48;41.89
19150;BME280;9707;49.158;8.632;2023-08-31T02:43:44;99881.34;;;25.47;41.67
19150;BME280;9707;49.158;8.632;2023-08-31T02:46:09;99878.63;;;25.47;41.66
19150;BME280;9707;49.158;8.632;2023-08-31T02:48:34;99884.94;;;25.47;41.89
19150;BME280;9707;49.158;8.632;2023-08-31T02:50:59;99883.25;;;25.46;41.78
19150;BME280;9707;49.158;8.632;2023-08-31T02:53:30;99882.38;;;25.46;41.63
19150;BME280;9707;49.158;8.632;2023-08-31T02:55:55;99893.28;;;25.46;41.98
19150;BME280;9707;49.158;8.632;2023-08-31T02:58:21;99875.22;;;25.45;41.58
19150;BME280;9707;49.158;8.632;2023-08-31T03:00:47;99887.81;;;25.46;42.32
19150;BME280;9707;49.158;8.632;2023-08-31T03:03:17;99883.41;;;25.45;41.98
19150;BME280;9707;49.158;8.632;2023-08-31T03:05:43;99881.69;;;25.44;41.82
19150;BME280;9707;49.158;8.632;2023-08-31T03:08:08;99883.56;;;25.43;41.78
19150;BME280;9707;49.158;8.632;2023-08-31T03:10:33;99878.09;;;25.43;41.92
19150;BME280;9707;49.158;8.632;2023-08-31T03:12:59;99881.00;;;25.42;42.14
19150;BME280;9707;49.158;8.632;2023-08-31T03:15:24;99890.03;;;25.42;42.05
19150;BME280;9707;49.158;8.632;2023-08-31T03:17:49;99896.50;;;25.41;41.61
19150;BME280;9707;49.158;8.632;2023-08-31T03:20:14;99898.38;;;25.41;41.94
19150;BME280;9707;49.158;8.632;2023-08-31T03:22:40;99895.66;;;25.41;42.07
19150;BME280;9707;49.158;8.632;2023-08-31T03:25:05;99902.81;;;25.42;41.79
19150;BME280;9707;49.158;8.632;2023-08-31T03:27:31;99900.25;;;25.40;42.04
19150;BME280;9707;49.158;8.632;2023-08-31T03:29:56;99908.44;;;25.40;41.69
19150;BME280;9707;49.158;8.632;2023-08-31T03:32:21;99909.28;;;25.41;41.79
19150;BME280;9707;49.158;8.632;2023-08-31T03:34:47;99903.16;;;25.39;41.71
19150;BME280;9707;49.158;8.632;2023-08-31T03:37:13;99901.44;;;25.38;41.75
19150;BME280;9707;49.158;8.632;2023-08-31T03:39:38;99914.06;;;25.39;41.61
19150;BME280;9707;49.158;8.632;2023-08-31T03:42:05;99916.94;;;25.37;41.90
19150;BME280;9707;49.158;8.632;2023-08-31T03:44:30;99920.53;;;25.38;41.79
19150;BME280;9707;49.158;8.632;2023-08-31T03:46:56;99918.81;;;25.37;42.13
19150;BME280;9707;49.158;8.632;2023-08-31T03:49:21;99927.84;;;25.37;41.72
19150;BME280;9707;49.158;8.632;2023-08-31T03:51:46;99926.16;;;25.36;41.71
19150;BME280;9707;49.158;8.632;2023-08-31T03:54:12;99934.50;;;25.35;41.71
19150;BME280;9707;49.158;8.632;2023-08-31T03:56:38;99930.06;;;25.34;41.71
19150;BME280;9707;49.158;8.632;2023-08-31T03:59:03;99932.78;;;25.34;41.53
19150;BME280;9707;49.158;8.632;2023-08-31T04:01:29;99931.06;;;25.33;41.75
19150;BME280;9707;49.158;8.632;2023-08-31T04:03:55;99929.03;;;25.35;41.90
19150;BME280;9707;49.158;8.632;2023-08-31T04:06:21;99929.91;;;25.35;41.87
19150;BME280;9707;49.158;8.632;2023-08-31T04:08:46;99927.34;;;25.34;41.75
19150;BME280;9707;49.158;8.632;2023-08-31T04:11:11;99932.78;;;25.34;41.90
19150;BME280;9707;49.158;8.632;2023-08-31T04:13:36;99921.00;;;25.33;41.84
19150;BME280;9707;49.158;8.632;2023-08-31T04:16:02;99927.34;;;25.34;41.69
19150;BME280;9707;49.158;8.632;2023-08-31T04:18:28;99932.06;;;25.32;41.55
19150;BME280;9707;49.158;8.632;2023-08-31T04:20:53;99927.66;;;25.31;41.72
19150;BME280;9707;49.158;8.632;2023-08-31T04:23:19;99933.25;;;25.29;41.79
19150;BME280;9707;49.158;8.632;2023-08-31T04:25:45;99935.16;;;25.29;42.01
19150;BME280;9707;49.158;8.632;2023-08-31T04:28:11;99942.31;;;25.30;41.99
19150;BME280;9707;49.158;8.632;2023-08-31T04:30:36;99941.44;;;25.29;41.94
19150;BME280;9707;49.158;8.632;2023-08-31T04:33:01;99945.19;;;25.28;41.84
19150;BME280;9707;49.158;8.632;2023-08-31T04:35:29;99948.78;;;25.29;41.68
19150;BME280;9707;49.158;8.632;2023-08-31T04:37:56;99952.53;;;25.28;41.78
19150;BME280;9707;49.158;8.632;2023-08-31T04:40:21;99956.25;;;25.27;41.58
19150;BME280;9707;49.158;8.632;2023-08-31T04:42:46;99953.53;;;25.27;41.85
19150;BME280;9707;49.158;8.632;2023-08-31T04:45:12;99953.53;;;25.27;41.82
19150;BME280;9707;49.158;8.632;2023-08-31T04:47:37;99950.97;;;25.25;42.00
19150;BME280;9707;49.158;8.632;2023-08-31T04:50:03;99951.81;;;25.26;41.64
19150;BME280;9707;49.158;8.632;2023-08-31T04:52:28;99944.63;;;25.25;41.83
19150;BME280;9707;49.158;8.632;2023-08-31T04:54:53;99950.09;;;25.25;41.52
19150;BME280;9707;49.158;8.632;2023-08-31T04:57:19;99953.81;;;25.24;41.53
19150;BME280;9707;49.158;8.632;2023-08-31T04:59:44;99952.97;;;25.23;41.53
19150;BME280;9707;49.158;8.632;2023-08-31T05:02:10;99953.13;;;25.22;41.58
19150;BME280;9707;49.158;8.632;2023-08-31T05:04:35;99957.56;;;25.23;41.93
19150;BME280;9707;49.158;8.632;2023-08-31T05:07:00;99957.56;;;25.23;41.69
19150;BME280;9707;49.158;8.632;2023-08-31T05:09:25;99965.75;;;25.23;41.65
19150;BME280;9707;49.158;8.632;2023-08-31T05:11:51;99977.66;;;25.22;41.56
19150;BME280;9707;49.158;8.632;2023-08-31T05:14:17;99971.53;;;25.20;41.74
19150;BME280;9707;49.158;8.632;2023-08-31T05:16:42;99984.84;;;25.23;41.40
19150;BME280;9707;49.158;8.632;2023-08-31T05:19:08;99987.72;;;25.21;41.40
19150;BME280;9707;49.158;8.632;2023-08-31T05:21:34;99989.59;;;25.21;41.45
19150;BME280;9707;49.158;8.632;2023-08-31T05:23:59;99991.47;;;25.20;41.25
19150;BME280;9707;49.158;8.632;2023-08-31T05:26:24;99998.78;;;25.20;41.65
19150;BME280;9707;49.158;8.632;2023-08-31T05:28:49;99999.81;;;25.19;41.60
19150;BME280;9707;49.158;8.632;2023-08-31T05:31:15;100012.41;;;25.20;41.59
19150;BME280;9707;49.158;8.632;2023-08-31T05:33:40;100012.41;;;25.20;41.44
19150;BME280;9707;49.158;8.632;2023-08-31T05:36:05;100022.63;;;25.18;41.73
19150;BME280;9707;49.158;8.632;2023-08-31T05:38:31;100018.88;;;25.19;41.68
19150;BME280;9707;49.158;8.632;2023-08-31T05:41:12;100015.28;;;25.18;41.55
19150;BME280;9707;49.158;8.632;2023-08-31T05:43:37;100027.06;;;25.19;41.61
19150;BME280;9707;49.158;8.632;2023-08-31T05:46:05;100020.75;;;25.18;41.39
19150;BME280;9707;49.158;8.632;2023-08-31T05:48:30;100027.06;;;25.19;41.44
19150;BME280;9707;49.158;8.632;2023-08-31T05:50:56;100023.63;;;25.17;41.46
19150;BME280;9707;49.158;8.632;2023-08-31T05:53:21;100019.91;;;25.18;41.47
19150;BME280;9707;49.158;8.632;2023-08-31T05:55:47;100030.81;;;25.18;41.72
19150;BME280;9707;49.158;8.632;2023-08-31T05:58:12;100026.03;;;25.20;41.89
19150;BME280;9707;49.158;8.632;2023-08-31T06:00:37;100024.19;;;25.20;41.66
19150;BME280;9707;49.158;8.632;2023-08-31T06:03:03;100019.56;;;25.21;41.31
19150;BME280;9707;49.158;8.632;2023-08-31T06:05:30;100016.69;;;25.22;41.65
19150;BME280;9707;49.158;8.632;2023-08-31T06:07:56;100028.47;;;25.23;41.83
19150;BME280;9707;49.158;8.632;2023-08-31T06:10:22;100030.16;;;25.24;41.35
19150;BME280;9707;49.158;8.632;2023-08-31T06:12:48;100020.97;;;25.25;41.31
19150;BME280;9707;49.158;8.632;2023-08-31T06:15:14;100027.31;;;25.25;41.39
19150;BME280;9707;49.158;8.632;2023-08-31T06:17:40;100032.78;;;25.25;41.39
19150;BME280;9707;49.158;8.632;2023-08-31T06:20:07;100038.22;;;25.25;41.42
19150;BME280;9707;49.158;8.632;2023-08-31T06:22:33;100036.31;;;25.26;41.16
19150;BME280;9707;49.158;8.632;2023-08-31T06:24:58;100045.38;;;25.26;41.60
19150;BME280;9707;49.158;8.632;2023-08-31T06:27:24;100049.97;;;25.26;41.70
19150;BME280;9707;49.158;8.632;2023-08-31T06:29:49;100052.53;;;25.27;41.17
19150;BME280;9707;49.158;8.632;2023-08-31T06:32:16;100045.22;;;25.28;41.00
19150;BME280;9707;49.158;8.632;2023-08-31T06:34:41;100055.09;;;25.29;40.90
19150;BME280;9707;49.158;8.632;2023-08-31T06:37:06;100059.69;;;25.28;41.03
19150;BME280;9707;49.158;8.632;2023-08-31T06:39:31;100061.59;;;25.28;41.21
19150;BME280;9707;49.158;8.632;2023-08-31T06:41:58;100050.69;;;25.28;41.21
19150;BME280;9707;49.158;8.632;2023-08-31T06:44:23;100051.66;;;25.27;41.17
19150;BME280;9707;49.158;8.632;2023-08-31T06:46:48;100051.66;;;25.27;40.96
19150;BME280;9707;49.158;8.632;2023-08-31T06:49:14;100057.13;;;25.27;40.63
19150;BME280;9707;49.158;8.632;2023-08-31T06:51:39;100059.84;;;25.27;40.43
19150;BME280;9707;49.158;8.632;2023-08-31T06:54:05;100066.44;;;25.24;40.63
19150;BME280;9707;49.158;8.632;2023-08-31T06:56:34;100069.16;;;25.24;40.75
19150;BME280;9707;49.158;8.632;2023-08-31T06:59:00;100077.22;;;25.26;40.53
19150;BME280;9707;49.158;8.632;2023-08-31T07:01:26;100070.03;;;25.25;40.71
19150;BME280;9707;49.158;8.632;2023-08-31T07:03:52;100070.03;;;25.25;40.56
19150;BME280;9707;49.158;8.632;2023-08-31T07:06:18;100074.63;;;25.24;40.64
19150;BME280;9707;49.158;8.632;2023-08-31T07:08:43;100075.50;;;25.25;40.98
19150;BME280;9707;49.158;8.632;2023-08-31T07:11:10;100075.50;;;25.25;40.70
19150;BME280;9707;49.158;8.632;2023-08-31T07:13:36;100083.66;;;25.25;40.75
19150;BME280;9707;49.158;8.632;2023-08-31T07:16:01;100080.94;;;25.25;41.08
19150;BME280;9707;49.158;8.632;2023-08-31T07:18:27;100083.66;;;25.25;40.62
19150;BME280;9707;49.158;8.632;2023-08-31T07:20:52;100090.84;;;25.26;40.95
19150;BME280;9707;49.158;8.632;2023-08-31T07:23:17;100090.84;;;25.26;40.77
19150;BME280;9707;49.158;8.632;2023-08-31T07:25:43;100086.38;;;25.25;40.94
19150;BME280;9707;49.158;8.632;2023-08-31T07:28:08;100087.09;;;25.27;40.43
19150;BME280;9707;49.158;8.632;2023-08-31T07:30:34;100097.19;;;25.26;40.00
19150;BME280;9707;49.158;8.632;2023-08-31T07:32:59;100090.69;;;25.27;40.00
19150;BME280;9707;49.158;8.632;2023-08-31T07:35:28;100098.00;;;25.27;39.52
19150;BME280;9707;49.158;8.632;2023-08-31T07:37:53;100087.09;;;25.27;39.36
19150;BME280;9707;49.158;8.632;2023-08-31T07:40:19;100085.25;;;25.27;39.32
19150;BME280;9707;49.158;8.632;2023-08-31T07:42:44;100092.56;;;25.27;39.34
19150;BME280;9707;49.158;8.632;2023-08-31T07:45:09;100097.84;;;25.28;38.94
19150;BME280;9707;49.158;8.632;2023-08-31T07:47:35;100106.91;;;25.29;39.08
19150;BME280;9707;49.158;8.632;2023-08-31T07:50:00;100097.03;;;25.28;39.14
19150;BME280;9707;49.158;8.632;2023-08-31T07:52:25;100106.91;;;25.29;39.34
19150;BME280;9707;49.158;8.632;2023-08-31T07:54:50;100107.59;;;25.31;39.38
19150;BME280;9707;49.158;8.632;2023-08-31T07:57:16;100122.09;;;25.31;39.49
19150;BME280;9707;49.158;8.632;2023-08-31T07:59:41;100115.63;;;25.32;39.23
19150;BME280;9707;49.158;8.632;2023-08-31T08:02:06;100123.66;;;25.34;39.13
19150;BME280;9707;49.158;8.632;2023-08-31T08:04:32;100123.66;;;25.34;38.67
19150;BME280;9707;49.158;8.632;2023-08-31T08:06:57;100112.75;;;25.34;38.44
19150;BME280;9707;49.158;8.632;2023-08-31T08:09:22;100125.34;;;25.35;38.62
19150;BME280;9707;49.158;8.632;2023-08-31T08:11:48;100123.31;;;25.37;38.41
19150;BME280;9707;49.158;8.632;2023-08-31T08:14:13;100127.94;;;25.36;38.04
19150;BME280;9707;49.158;8.632;2023-08-31T08:16:40;100131.34;;;25.38;38.37
19150;BME280;9707;49.158;8.632;2023-08-31T08:19:06;100138.69;;;25.38;38.04
19150;BME280;9707;49.158;8.632;2023-08-31T08:21:32;100130.50;;;25.38;37.94
19150;BME280;9707;49.158;8.632;2023-08-31T08:23:57;100126.75;;;25.39;38.54
19150;BME280;9707;49.158;8.632;2023-08-31T08:26:22;100141.94;;;25.41;38.04
19150;BME280;9707;49.158;8.632;2023-08-31T08:28:48;100138.34;;;25.41;37.97
19150;BME280;9707;49.158;8.632;2023-08-31T08:31:13;100138.19;;;25.42;38.02
19150;BME280;9707;49.158;8.632;2023-08-31T08:33:38;100145.34;;;25.43;38.04
19150;BME280;9707;49.158;8.632;2023-08-31T08:36:04;100141.44;;;25.46;38.22
19150;BME280;9707;49.158;8.632;2023-08-31T08:38:29;100136.72;;;25.48;38.20
19150;BME280;9707;49.158;8.632;2023-08-31T08:40:54;100146.75;;;25.47;37.54
19150;BME280;9707;49.158;8.632;2023-08-31T08:43:25;100144.03;;;25.47;37.43
19150;BME280;9707;49.158;8.632;2023-08-31T08:45:53;100149.16;;;25.50;37.65
19150;BME280;9707;49.158;8.632;2023-08-31T08:48:20;100144.56;;;25.51;37.35
19150;BME280;9707;49.158;8.632;2023-08-31T08:50:46;100138.94;;;25.52;37.64
19150;BME280;9707;49.158;8.632;2023-08-31T08:53:11;100148.69;;;25.55;37.49
19150;BME280;9707;49.158;8.632;2023-08-31T08:55:40;100137.63;;;25.56;37.11
19150;BME280;9707;49.158;8.632;2023-08-31T08:58:06;100145.81;;;25.56;36.77
19150;BME280;9707;49.158;8.632;2023-08-31T09:00:32;100149.22;;;25.58;36.75
19150;BME280;9707;49.158;8.632;2023-08-31T09:02:58;100155.53;;;25.59;35.84
19150;BME280;9707;49.158;8.632;2023-08-31T09:05:24;100154.50;;;25.60;35.57
19150;BME280;9707;49.158;8.632;2023-08-31T09:08:09;100150.09;;;25.59;35.69
19150;BME280;9707;49.158;8.632;2023-08-31T09:10:40;100146.47;;;25.58;35.91
19150;BME280;9707;49.158;8.632;2023-08-31T09:13:10;100157.25;;;25.60;36.18
19150;BME280;9707;49.158;8.632;2023-08-31T09:15:57;100153.50;;;25.61;35.64
19150;BME280;9707;49.158;8.632;2023-08-31T09:18:25;100159.63;;;25.63;35.97
19150;BME280;9707;49.158;8.632;2023-08-31T09:20:51;100154.88;;;25.65;36.56
19150;BME280;9707;49.158;8.632;2023-08-31T09:23:17;100145.69;;;25.66;35.74
19150;BME280;9707;49.158;8.632;2023-08-31T09:25:47;100146.38;;;25.68;36.07
19150;BME280;9707;49.158;8.632;2023-08-31T09:28:20;100152.53;;;25.70;36.25
19150;BME280;9707;49.158;8.632;2023-08-31T09:30:47;100158.66;;;25.72;36.17
19150;BME280;9707;49.158;8.632;2023-08-31T09:33:14;100153.94;;;25.74;35.31
19150;BME280;9707;49.158;8.632;2023-08-31T09:38:14;100156.81;;;25.72;35.12
19150;BME280;9707;49.158;8.632;2023-08-31T09:40:40;100155.78;;;25.73;34.50
19150;BME280;9707;49.158;8.632;2023-08-31T09:43:05;100148.47;;;25.74;34.53
19150;BME280;9707;49.158;8.632;2023-08-31T09:45:32;100142.81;;;25.75;34.62
19150;BME280;9707;49.158;8.632;2023-08-31T09:47:59;100146.44;;;25.76;34.32
19150;BME280;9707;49.158;8.632;2023-08-31T09:50:28;100148.13;;;25.77;34.86
19150;BME280;9707;49.158;8.632;2023-08-31T09:52:55;100146.94;;;25.79;33.99
19150;BME280;9707;49.158;8.632;2023-08-31T09:55:25;100149.53;;;25.81;33.89
19150;BME280;9707;49.158;8.632;2023-08-31T09:57:52;100152.94;;;25.83;33.80
19150;BME280;9707;49.158;8.632;2023-08-31T10:00:19;100153.50;;;25.86;34.14
19150;BME280;9707;49.158;8.632;2023-08-31T10:02:45;100159.78;;;25.87;33.70
19150;BME280;9707;49.158;8.632;2023-08-31T10:05:13;100160.50;;;25.89;33.35
19150;BME280;9707;49.158;8.632;2023-08-31T10:07:39;100158.59;;;25.89;33.01
19150;BME280;9707;49.158;8.632;2023-08-31T10:10:06;100147.69;;;25.89;33.19
19150;BME280;9707;49.158;8.632;2023-08-31T10:12:32;100148.56;;;25.90;32.59
19150;BME280;9707;49.158;8.632;2023-08-31T10:14:59;100159.47;;;25.90;32.01
19150;BME280;9707;49.158;8.632;2023-08-31T10:17:25;100164.06;;;25.89;32.13
19150;BME280;9707;49.158;8.632;2023-08-31T10:19:50;100160.31;;;25.90;31.61
19150;BME280;9707;49.158;8.632;2023-08-31T10:22:16;100157.47;;;25.92;31.89
19150;BME280;9707;49.158;8.632;2023-08-31T10:24:58;100156.44;;;25.93;31.92
19150;BME280;9707;49.158;8.632;2023-08-31T10:27:24;100166.38;;;25.94;31.43
19150;BME280;9707;49.158;8.632;2023-08-31T10:29:49;100153.41;;;25.96;31.55
19150;BME280;9707;49.158;8.632;2023-08-31T10:32:18;100150.50;;;25.97;31.98
19150;BME280;9707;49.158;8.632;2023-08-31T10:35:08;100153.63;;;26.02;32.13
19150;BME280;9707;49.158;8.632;2023-08-31T10:37:33;100146.25;;;26.03;31.79
19150;BME280;9707;49.158;8.632;2023-08-31T10:42:41;100140.31;;;26.07;32.15
19150;BME280;9707;49.158;8.632;2023-08-31T10:45:08;100150.91;;;26.10;31.40
19150;BME280;9707;49.158;8.632;2023-08-31T10:47:37;100140.84;;;26.11;31.39
19150;BME280;9707;49.158;8.632;2023-08-31T10:50:17;100144.25;;;26.13;31.54
19150;BME280;9707;49.158;8.632;2023-08-31T10:52:44;100147.69;;;26.15;31.72
19150;BME280;9707;49.158;8.632;2023-08-31T10:55:11;100154.88;;;26.16;31.59
19150;BME280;9707;49.158;8.632;2023-08-31T10:57:36;100147.53;;;26.16;31.62
19150;BME280;9707;49.158;8.632;2023-08-31T11:00:02;100140.03;;;26.18;31.56
19150;BME280;9707;49.158;8.632;2023-08-31T11:05:00;100147.03;;;26.21;31.57
19150;BME280;9707;49.158;8.632;2023-08-31T11:07:29;100146.16;;;26.20;32.17
19150;BME280;9707;49.158;8.632;2023-08-31T11:10:07;100149.78;;;26.21;31.82
19150;BME280;9707;49.158;8.632;2023-08-31T11:12:32;100150.44;;;26.23;32.01
19150;BME280;9707;49.158;8.632;2023-08-31T11:14:58;100152.19;;;26.24;32.08
19150;BME280;9707;49.158;8.632;2023-08-31T11:17:24;100154.72;;;26.25;31.88
19150;BME280;9707;49.158;8.632;2023-08-31T11:19:49;100163.78;;;26.26;31.60
19150;BME280;9707;49.158;8.632;2023-08-31T11:22:14;100171.97;;;26.26;31.63
19150;BME280;9707;49.158;8.632;2023-08-31T11:24:43;100162.75;;;26.27;31.95
19150;BME280;9707;49.158;8.632;2023-08-31T11:27:08;100159.00;;;26.28;31.94
19150;BME280;9707;49.158;8.632;2023-08-31T11:29:53;100156.28;;;26.28;32.60
19150;BME280;9707;49.158;8.632;2023-08-31T11:32:18;100151.53;;;26.30;32.52
19150;BME280;9707;49.158;8.632;2023-08-31T11:34:44;100148.78;;;26.30;32.24
19150;BME280;9707;49.158;8.632;2023-08-31T11:37:12;100169.25;;;26.34;31.87
19150;BME280;9707;49.158;8.632;2023-08-31T11:39:42;100154.63;;;26.35;32.20
19150;BME280;9707;49.158;8.632;2023-08-31T11:42:08;100150.84;;;26.36;32.38
19150;BME280;9707;49.158;8.632;2023-08-31T11:44:33;100158.03;;;26.37;32.08
19150;BME280;9707;49.158;8.632;2023-08-31T11:47:00;100152.41;;;26.38;31.97
19150;BME280;9707;49.158;8.632;2023-08-31T11:49:26;100142.50;;;26.37;32.13
19150;BME280;9707;49.158;8.632;2023-08-31T11:51:52;100140.44;;;26.39;32.30
19150;BME280;9707;49.158;8.632;2023-08-31T11:54:18;100145.75;;;26.41;32.05
19150;BME280;9707;49.158;8.632;2023-08-31T11:56:44;100153.94;;;26.41;31.91
19150;BME280;9707;49.158;8.632;2023-08-31T11:59:18;100149.50;;;26.40;31.83
19150;BME280;9707;49.158;8.632;2023-08-31T12:01:46;100155.66;;;26.42;31.66
19150;BME280;9707;49.158;8.632;2023-08-31T12:04:14;100150.88;;;26.44;32.05
19150;BME280;9707;49.158;8.632;2023-08-31T12:06:40;100145.09;;;26.47;32.09
19150;BME280;9707;49.158;8.632;2023-08-31T12:09:07;100143.03;;;26.49;31.95
19150;BME280;9707;49.158;8.632;2023-08-31T12:11:33;100151.22;;;26.49;31.71
19150;BME280;9707;49.158;8.632;2023-08-31T12:14:02;100144.56;;;26.51;31.45
19150;BME280;9707;49.158;8.632;2023-08-31T12:16:35;100141.84;;;26.51;32.05
19150;BME280;9707;49.158;8.632;2023-08-31T12:19:04;100137.09;;;26.53;32.05
19150;BME280;9707;49.158;8.632;2023-08-31T12:21:32;100140.53;;;26.55;32.16
19150;BME280;9707;49.158;8.632;2023-08-31T12:23:58;100139.34;;;26.58;31.76
19150;BME280;9707;49.158;8.632;2023-08-31T12:26:24;100141.03;;;26.59;31.94
19150;BME280;9707;49.158;8.632;2023-08-31T12:28:52;100142.78;;;26.60;31.78
19150;BME280;9707;49.158;8.632;2023-08-31T12:31:18;100140.72;;;26.62;31.97
19150;BME280;9707;49.158;8.632;2023-08-31T12:33:43;100142.44;;;26.63;32.11
19150;BME280;9707;49.158;8.632;2023-08-31T12:36:08;100134.94;;;26.65;32.03
19150;BME280;9707;49.158;8.632;2023-08-31T12:38:33;100132.88;;;26.67;32.06
19150;BME280;9707;49.158;8.632;2023-08-31T12:40:59;100144.47;;;26.69;32.42
19150;BME280;9707;49.158;8.632;2023-08-31T12:43:24;100130.81;;;26.69;32.33
19150;BME280;9707;49.158;8.632;2023-08-31T12:45:49;100143.50;;;26.70;32.34
19150;BME280;9707;49.158;8.632;2023-08-31T12:48:15;100136.84;;;26.72;32.81
19150;BME280;9707;49.158;8.632;2023-08-31T12:50:40;100146.72;;;26.73;32.73
19150;BME280;9707;49.158;8.632;2023-08-31T12:53:05;100148.28;;;26.76;32.22
19150;BME280;9707;49.158;8.632;2023-08-31T12:55:30;100144.50;;;26.77;32.39
19150;BME280;9707;49.158;8.632;2023-08-31T12:57:56;100144.34;;;26.78;32.23
19150;BME280;9707;49.158;8.632;2023-08-31T13:00:22;100140.59;;;26.79;32.01
19150;BME280;9707;49.158;8.632;2023-08-31T13:02:47;100135.13;;;26.79;32.26
19150;BME280;9707;49.158;8.632;2023-08-31T13:05:15;100133.94;;;26.82;32.58
19150;BME280;9707;49.158;8.632;2023-08-31T13:07:40;100125.72;;;26.82;32.65
19150;BME280;9707;49.158;8.632;2023-08-31T13:10:06;100124.69;;;26.83;32.58